sensor_id;sensor_type;location;lat;lon;timestamp;P1;durP1;ratioP1;P2;durP2;ratioP2
34098;SDS011;20374;49.474;10.944;2024-03-23T00:55:43;5.20;;;4.70;;
34098;SDS011;20374;49.474;10.944;2024-03-23T00:58:09;3.97;;;3.67;;
34098;SDS011;20374;49.474;10.944;2024-03-23T01:00:35;3.95;;;3.53;;
34098;SDS011;20374;49.474;10.944;2024-03-23T01:03:01;4.25;;;3.95;;
34098;SDS011;20374;49.474;10.944;2024-03-23T01:05:26;4.47;;;4.07;;
34098;SDS011;20374;49.474;10.944;2024-03-23T01:07:52;4.22;;;3.92;;
34098;SDS011;20374;49.474;10.944;2024-03-23T01:10:18;4.53;;;4.22;;
34098;SDS011;20374;49.474;10.944;2024-03-23T01:12:44;4.63;;;4.22;;
34098;SDS011;20374;49.474;10.944;2024-03-23T01:15:10;8.25;;;4.20;;
34098;SDS011;20374;49.474;10.944;2024-03-23T01:17:36;5.30;;;4.80;;
34098;SDS011;20374;49.474;10.944;2024-03-23T01:20:02;3.63;;;3.30;;
34098;SDS011;20374;49.474;10.944;2024-03-23T01:22:28;4.10;;;3.80;;
34098;SDS011;20374;49.474;10.944;2024-03-23T01:24:54;5.10;;;4.70;;
34098;SDS011;20374;49.474;10.944;2024-03-23T01:27:19;4.43;;;4.03;;
34098;SDS011;20374;49.474;10.944;2024-03-23T01:29:45;4.40;;;3.97;;
34098;SDS011;20374;49.474;10.944;2024-03-23T01:32:11;3.70;;;3.40;;
34098;SDS011;20374;49.474;10.944;2024-03-23T01:34:37;4.18;;;3.60;;
34098;SDS011;20374;49.474;10.944;2024-03-23T01:37:03;4.03;;;3.72;;
34098;SDS011;20374;49.474;10.944;2024-03-23T01:39:29;4.07;;;3.75;;
34098;SDS011;20374;49.474;10.944;2024-03-23T01:41:56;5.23;;;4.83;;
34098;SDS011;20374;49.474;10.944;2024-03-23T01:44:21;4.15;;;3.75;;
34098;SDS011;20374;49.474;10.944;2024-03-23T01:46:47;4.22;;;3.92;;
34098;SDS011;20374;49.474;10.944;2024-03-23T01:49:14;4.25;;;3.95;;
34098;SDS011;20374;49.474;10.944;2024-03-23T01:51:39;4.17;;;3.87;;
34098;SDS011;20374;49.474;10.944;2024-03-23T01:54:08;4.20;;;3.72;;
34098;SDS011;20374;49.474;10.944;2024-03-23T01:56:34;4.93;;;4.43;;
34098;SDS011;20374;49.474;10.944;2024-03-23T01:59:07;5.10;;;4.60;;
34098;SDS011;20374;49.474;10.944;2024-03-23T02:01:36;5.33;;;4.70;;
34098;SDS011;20374;49.474;10.944;2024-03-23T02:04:02;4.18;;;3.80;;
34098;SDS011;20374;49.474;10.944;2024-03-23T02:06:28;4.68;;;4.38;;
34098;SDS011;20374;49.474;10.944;2024-03-23T02:08:54;4.82;;;4.25;;
34098;SDS011;20374;49.474;10.944;2024-03-23T02:11:20;4.60;;;4.30;;
34098;SDS011;20374;49.474;10.944;2024-03-23T02:13:46;4.73;;;4.33;;
34098;SDS011;20374;49.474;10.944;2024-03-23T02:16:12;6.10;;;5.70;;
34098;SDS011;20374;49.474;10.944;2024-03-23T02:18:38;5.25;;;4.85;;
34098;SDS011;20374;49.474;10.944;2024-03-23T02:21:04;5.50;;;4.85;;
34098;SDS011;20374;49.474;10.944;2024-03-23T02:23:30;4.70;;;4.40;;
34098;SDS011;20374;49.474;10.944;2024-03-23T02:25:56;5.57;;;5.05;;
34098;SDS011;20374;49.474;10.944;2024-03-23T02:28:22;4.78;;;4.38;;
34098;SDS011;20374;49.474;10.944;2024-03-23T02:30:49;5.25;;;4.85;;
34098;SDS011;20374;49.474;10.944;2024-03-23T02:33:15;7.37;;;5.47;;
34098;SDS011;20374;49.474;10.944;2024-03-23T02:35:42;6.47;;;5.28;;
34098;SDS011;20374;49.474;10.944;2024-03-23T02:38:09;5.22;;;4.80;;
34098;SDS011;20374;49.474;10.944;2024-03-23T02:40:35;7.88;;;4.78;;
34098;SDS011;20374;49.474;10.944;2024-03-23T02:43:02;5.72;;;5.22;;
34098;SDS011;20374;49.474;10.944;2024-03-23T02:45:29;4.93;;;4.40;;
34098;SDS011;20374;49.474;10.944;2024-03-23T02:47:55;5.15;;;4.70;;
34098;SDS011;20374;49.474;10.944;2024-03-23T02:50:21;5.85;;;5.35;;
34098;SDS011;20374;49.474;10.944;2024-03-23T02:52:48;5.05;;;4.65;;
34098;SDS011;20374;49.474;10.944;2024-03-23T02:55:14;4.65;;;4.35;;
34098;SDS011;20374;49.474;10.944;2024-03-23T02:57:40;4.78;;;4.32;;
34098;SDS011;20374;49.474;10.944;2024-03-23T03:00:07;4.47;;;3.92;;
34098;SDS011;20374;49.474;10.944;2024-03-23T03:02:34;4.95;;;4.45;;
34098;SDS011;20374;49.474;10.944;2024-03-23T03:05:00;4.78;;;4.28;;
34098;SDS011;20374;49.474;10.944;2024-03-23T03:07:25;4.83;;;4.43;;
34098;SDS011;20374;49.474;10.944;2024-03-23T03:09:51;6.05;;;5.65;;
34098;SDS011;20374;49.474;10.944;2024-03-23T03:12:17;4.95;;;4.65;;
34098;SDS011;20374;49.474;10.944;2024-03-23T03:14:43;5.63;;;5.22;;
34098;SDS011;20374;49.474;10.944;2024-03-23T03:17:09;5.00;;;4.70;;
34098;SDS011;20374;49.474;10.944;2024-03-23T03:19:35;6.10;;;5.50;;
34098;SDS011;20374;49.474;10.944;2024-03-23T03:22:01;6.50;;;5.95;;
34098;SDS011;20374;49.474;10.944;2024-03-23T03:24:26;5.47;;;4.97;;
34098;SDS011;20374;49.474;10.944;2024-03-23T03:26:52;4.10;;;3.80;;
34098;SDS011;20374;49.474;10.944;2024-03-23T03:29:18;5.85;;;5.35;;
34098;SDS011;20374;49.474;10.944;2024-03-23T03:31:44;5.43;;;4.90;;
34098;SDS011;20374;49.474;10.944;2024-03-23T03:34:10;6.17;;;3.60;;
34098;SDS011;20374;49.474;10.944;2024-03-23T03:36:36;4.32;;;4.03;;
34098;SDS011;20374;49.474;10.944;2024-03-23T03:39:02;6.10;;;5.50;;
34098;SDS011;20374;49.474;10.944;2024-03-23T03:41:29;4.55;;;4.15;;
34098;SDS011;20374;49.474;10.944;2024-03-23T03:43:56;4.93;;;4.53;;
34098;SDS011;20374;49.474;10.944;2024-03-23T03:46:26;5.85;;;5.35;;
34098;SDS011;20374;49.474;10.944;2024-03-23T03:48:53;4.45;;;4.05;;
34098;SDS011;20374;49.474;10.944;2024-03-23T03:51:20;4.77;;;4.33;;
34098;SDS011;20374;49.474;10.944;2024-03-23T03:53:46;5.10;;;4.63;;
34098;SDS011;20374;49.474;10.944;2024-03-23T03:56:12;4.88;;;4.38;;
34098;SDS011;20374;49.474;10.944;2024-03-23T03:58:38;5.60;;;5.10;;
34098;SDS011;20374;49.474;10.944;2024-03-23T04:01:05;5.25;;;4.80;;
34098;SDS011;20374;49.474;10.944;2024-03-23T04:03:31;5.40;;;4.90;;
34098;SDS011;20374;49.474;10.944;2024-03-23T04:05:57;5.30;;;4.90;;
34098;SDS011;20374;49.474;10.944;2024-03-23T04:08:23;5.82;;;5.43;;
34098;SDS011;20374;49.474;10.944;2024-03-23T04:10:49;5.17;;;4.80;;
34098;SDS011;20374;49.474;10.944;2024-03-23T04:13:15;5.28;;;3.88;;
34098;SDS011;20374;49.474;10.944;2024-03-23T04:15:41;5.30;;;4.90;;
34098;SDS011;20374;49.474;10.944;2024-03-23T04:18:08;5.35;;;4.95;;
34098;SDS011;20374;49.474;10.944;2024-03-23T04:20:34;5.40;;;4.47;;
34098;SDS011;20374;49.474;10.944;2024-03-23T04:23:00;5.00;;;4.60;;
34098;SDS011;20374;49.474;10.944;2024-03-23T04:25:26;5.15;;;4.68;;
34098;SDS011;20374;49.474;10.944;2024-03-23T04:27:52;5.38;;;4.90;;
34098;SDS011;20374;49.474;10.944;2024-03-23T04:30:18;4.40;;;4.03;;
34098;SDS011;20374;49.474;10.944;2024-03-23T04:32:44;5.18;;;4.78;;
34098;SDS011;20374;49.474;10.944;2024-03-23T04:35:10;4.95;;;4.55;;
34098;SDS011;20374;49.474;10.944;2024-03-23T04:37:36;4.45;;;4.07;;
34098;SDS011;20374;49.474;10.944;2024-03-23T04:40:03;4.95;;;4.45;;
34098;SDS011;20374;49.474;10.944;2024-03-23T04:42:30;4.45;;;4.15;;
34098;SDS011;20374;49.474;10.944;2024-03-23T04:44:56;5.18;;;4.78;;
34098;SDS011;20374;49.474;10.944;2024-03-23T04:47:22;4.63;;;4.22;;
34098;SDS011;20374;49.474;10.944;2024-03-23T04:49:48;4.77;;;4.37;;
34098;SDS011;20374;49.474;10.944;2024-03-23T04:52:15;5.25;;;4.93;;
34098;SDS011;20374;49.474;10.944;2024-03-23T04:54:41;4.53;;;4.22;;
34098;SDS011;20374;49.474;10.944;2024-03-23T04:57:07;4.53;;;4.22;;
34098;SDS011;20374;49.474;10.944;2024-03-23T04:59:33;4.22;;;3.88;;
34098;SDS011;20374;49.474;10.944;2024-03-23T05:01:59;5.13;;;4.70;;
34098;SDS011;20374;49.474;10.944;2024-03-23T05:04:26;4.90;;;4.55;;
34098;SDS011;20374;49.474;10.944;2024-03-23T05:06:52;5.20;;;4.73;;
34098;SDS011;20374;49.474;10.944;2024-03-23T05:09:17;4.25;;;3.88;;
34098;SDS011;20374;49.474;10.944;2024-03-23T05:11:43;4.63;;;4.32;;
34098;SDS011;20374;49.474;10.944;2024-03-23T05:14:12;4.57;;;4.27;;
34098;SDS011;20374;49.474;10.944;2024-03-23T05:16:41;4.90;;;4.50;;
34098;SDS011;20374;49.474;10.944;2024-03-23T05:19:07;5.47;;;4.97;;
34098;SDS011;20374;49.474;10.944;2024-03-23T05:21:33;4.43;;;4.03;;
34098;SDS011;20374;49.474;10.944;2024-03-23T05:23:59;4.30;;;4.00;;
34098;SDS011;20374;49.474;10.944;2024-03-23T05:26:24;5.55;;;3.85;;
34098;SDS011;20374;49.474;10.944;2024-03-23T05:28:50;4.83;;;4.53;;
34098;SDS011;20374;49.474;10.944;2024-03-23T05:31:26;6.63;;;4.65;;
34098;SDS011;20374;49.474;10.944;2024-03-23T05:33:53;3.97;;;3.75;;
34098;SDS011;20374;49.474;10.944;2024-03-23T05:36:19;5.95;;;5.45;;
34098;SDS011;20374;49.474;10.944;2024-03-23T05:38:45;4.75;;;4.40;;
34098;SDS011;20374;49.474;10.944;2024-03-23T05:41:11;4.22;;;3.92;;
34098;SDS011;20374;49.474;10.944;2024-03-23T05:43:37;4.32;;;4.03;;
34098;SDS011;20374;49.474;10.944;2024-03-23T05:46:03;4.57;;;4.27;;
34098;SDS011;20374;49.474;10.944;2024-03-23T05:48:30;4.40;;;4.10;;
34098;SDS011;20374;49.474;10.944;2024-03-23T05:50:57;5.00;;;4.65;;
34098;SDS011;20374;49.474;10.944;2024-03-23T05:53:23;4.90;;;4.60;;
34098;SDS011;20374;49.474;10.944;2024-03-23T05:55:50;4.35;;;4.10;;
34098;SDS011;20374;49.474;10.944;2024-03-23T05:58:18;5.60;;;5.20;;
34098;SDS011;20374;49.474;10.944;2024-03-23T06:00:45;4.22;;;3.92;;
34098;SDS011;20374;49.474;10.944;2024-03-23T06:03:11;3.90;;;3.58;;
34098;SDS011;20374;49.474;10.944;2024-03-23T06:05:37;5.32;;;5.00;;
34098;SDS011;20374;49.474;10.944;2024-03-23T06:08:04;3.90;;;3.60;;
34098;SDS011;20374;49.474;10.944;2024-03-23T06:10:30;4.60;;;4.20;;
34098;SDS011;20374;49.474;10.944;2024-03-23T06:12:57;3.92;;;3.50;;
34098;SDS011;20374;49.474;10.944;2024-03-23T06:15:24;4.40;;;4.10;;
34098;SDS011;20374;49.474;10.944;2024-03-23T06:17:50;4.00;;;3.70;;
34098;SDS011;20374;49.474;10.944;2024-03-23T06:20:16;5.23;;;4.83;;
34098;SDS011;20374;49.474;10.944;2024-03-23T06:22:42;4.47;;;4.07;;
34098;SDS011;20374;49.474;10.944;2024-03-23T06:25:08;4.40;;;4.10;;
34098;SDS011;20374;49.474;10.944;2024-03-23T06:27:33;5.47;;;5.07;;
34098;SDS011;20374;49.474;10.944;2024-03-23T06:30:00;4.47;;;4.07;;
34098;SDS011;20374;49.474;10.944;2024-03-23T06:32:27;5.05;;;4.20;;
34098;SDS011;20374;49.474;10.944;2024-03-23T06:34:54;4.18;;;3.88;;
34098;SDS011;20374;49.474;10.944;2024-03-23T06:37:20;4.90;;;4.50;;
34098;SDS011;20374;49.474;10.944;2024-03-23T06:39:48;4.68;;;4.25;;
34098;SDS011;20374;49.474;10.944;2024-03-23T06:42:14;4.03;;;3.63;;
34098;SDS011;20374;49.474;10.944;2024-03-23T06:44:40;4.93;;;4.47;;
34098;SDS011;20374;49.474;10.944;2024-03-23T06:47:06;5.23;;;4.73;;
34098;SDS011;20374;49.474;10.944;2024-03-23T06:49:32;4.97;;;4.60;;
34098;SDS011;20374;49.474;10.944;2024-03-23T06:51:58;4.45;;;4.05;;
34098;SDS011;20374;49.474;10.944;2024-03-23T06:54:24;5.00;;;4.60;;
34098;SDS011;20374;49.474;10.944;2024-03-23T06:56:50;4.70;;;4.35;;
34098;SDS011;20374;49.474;10.944;2024-03-23T06:59:16;4.80;;;4.45;;
34098;SDS011;20374;49.474;10.944;2024-03-23T07:01:41;5.03;;;4.63;;
34098;SDS011;20374;49.474;10.944;2024-03-23T07:04:07;4.32;;;4.00;;
34098;SDS011;20374;49.474;10.944;2024-03-23T07:06:33;4.45;;;4.05;;
34098;SDS011;20374;49.474;10.944;2024-03-23T07:08:59;4.17;;;3.77;;
34098;SDS011;20374;49.474;10.944;2024-03-23T07:11:25;5.65;;;5.15;;
34098;SDS011;20374;49.474;10.944;2024-03-23T07:13:52;4.97;;;4.68;;
34098;SDS011;20374;49.474;10.944;2024-03-23T07:16:21;5.22;;;4.82;;
34098;SDS011;20374;49.474;10.944;2024-03-23T07:18:49;4.63;;;4.33;;
34098;SDS011;20374;49.474;10.944;2024-03-23T07:21:15;4.85;;;4.43;;
34098;SDS011;20374;49.474;10.944;2024-03-23T07:23:42;5.65;;;5.15;;
34098;SDS011;20374;49.474;10.944;2024-03-23T07:26:10;4.07;;;3.78;;
34098;SDS011;20374;49.474;10.944;2024-03-23T07:28:36;5.38;;;4.97;;
34098;SDS011;20374;49.474;10.944;2024-03-23T07:31:03;4.13;;;3.83;;
34098;SDS011;20374;49.474;10.944;2024-03-23T07:33:31;5.35;;;4.90;;
34098;SDS011;20374;49.474;10.944;2024-03-23T07:35:57;4.28;;;3.97;;
34098;SDS011;20374;49.474;10.944;2024-03-23T07:38:25;4.78;;;4.38;;
34098;SDS011;20374;49.474;10.944;2024-03-23T07:40:52;4.13;;;3.83;;
34098;SDS011;20374;49.474;10.944;2024-03-23T07:43:27;4.60;;;4.20;;
34098;SDS011;20374;49.474;10.944;2024-03-23T07:45:53;4.90;;;4.50;;
34098;SDS011;20374;49.474;10.944;2024-03-23T07:48:22;6.32;;;5.03;;
34098;SDS011;20374;49.474;10.944;2024-03-23T07:51:01;4.10;;;3.80;;
34098;SDS011;20374;49.474;10.944;2024-03-23T07:53:28;4.90;;;4.60;;
34098;SDS011;20374;49.474;10.944;2024-03-23T07:56:01;4.07;;;3.78;;
34098;SDS011;20374;49.474;10.944;2024-03-23T07:58:31;3.70;;;3.38;;
34098;SDS011;20374;49.474;10.944;2024-03-23T08:03:50;4.38;;;4.07;;
34098;SDS011;20374;49.474;10.944;2024-03-23T08:06:17;4.90;;;4.50;;
34098;SDS011;20374;49.474;10.944;2024-03-23T08:08:45;6.50;;;6.10;;
34098;SDS011;20374;49.474;10.944;2024-03-23T08:11:11;5.85;;;5.35;;
34098;SDS011;20374;49.474;10.944;2024-03-23T08:13:41;3.20;;;2.90;;
34098;SDS011;20374;49.474;10.944;2024-03-23T08:16:08;4.53;;;4.20;;
34098;SDS011;20374;49.474;10.944;2024-03-23T08:18:34;4.22;;;3.92;;
34098;SDS011;20374;49.474;10.944;2024-03-23T08:21:04;3.30;;;2.90;;
34098;SDS011;20374;49.474;10.944;2024-03-23T08:23:31;4.55;;;4.25;;
34098;SDS011;20374;49.474;10.944;2024-03-23T08:26:02;3.17;;;2.97;;
34098;SDS011;20374;49.474;10.944;2024-03-23T08:28:31;4.40;;;4.10;;
34098;SDS011;20374;49.474;10.944;2024-03-23T08:31:00;2.35;;;2.13;;
34098;SDS011;20374;49.474;10.944;2024-03-23T08:33:28;3.33;;;3.13;;
34098;SDS011;20374;49.474;10.944;2024-03-23T08:35:57;4.13;;;3.70;;
34098;SDS011;20374;49.474;10.944;2024-03-23T08:38:27;3.03;;;2.83;;
34098;SDS011;20374;49.474;10.944;2024-03-23T08:41:11;3.90;;;3.60;;
34098;SDS011;20374;49.474;10.944;2024-03-23T08:43:40;2.95;;;2.75;;
34098;SDS011;20374;49.474;10.944;2024-03-23T08:46:10;3.08;;;2.88;;
34098;SDS011;20374;49.474;10.944;2024-03-23T08:48:40;4.68;;;4.38;;
34098;SDS011;20374;49.474;10.944;2024-03-23T08:51:11;3.83;;;3.53;;
34098;SDS011;20374;49.474;10.944;2024-03-23T08:53:38;4.77;;;4.10;;
34098;SDS011;20374;49.474;10.944;2024-03-23T08:56:05;2.90;;;2.70;;
34098;SDS011;20374;49.474;10.944;2024-03-23T08:58:32;3.28;;;3.08;;
34098;SDS011;20374;49.474;10.944;2024-03-23T09:01:08;3.03;;;2.83;;
34098;SDS011;20374;49.474;10.944;2024-03-23T09:03:35;3.40;;;3.20;;
34098;SDS011;20374;49.474;10.944;2024-03-23T09:06:02;3.73;;;3.50;;
34098;SDS011;20374;49.474;10.944;2024-03-23T09:08:35;2.85;;;2.65;;
34098;SDS011;20374;49.474;10.944;2024-03-23T09:11:05;3.45;;;2.70;;
34098;SDS011;20374;49.474;10.944;2024-03-23T09:13:35;3.30;;;3.10;;
34098;SDS011;20374;49.474;10.944;2024-03-23T09:16:01;2.83;;;2.63;;
34098;SDS011;20374;49.474;10.944;2024-03-23T09:18:28;3.80;;;3.50;;
34098;SDS011;20374;49.474;10.944;2024-03-23T09:20:56;3.22;;;3.03;;
34098;SDS011;20374;49.474;10.944;2024-03-23T09:23:22;3.10;;;2.90;;
34098;SDS011;20374;49.474;10.944;2024-03-23T09:25:48;3.00;;;2.80;;
34098;SDS011;20374;49.474;10.944;2024-03-23T09:28:14;2.72;;;2.53;;
34098;SDS011;20374;49.474;10.944;2024-03-23T09:30:40;2.72;;;2.53;;
34098;SDS011;20374;49.474;10.944;2024-03-23T09:33:09;3.37;;;3.17;;
34098;SDS011;20374;49.474;10.944;2024-03-23T09:35:42;2.47;;;2.28;;
34098;SDS011;20374;49.474;10.944;2024-03-23T09:38:10;4.78;;;3.38;;
34098;SDS011;20374;49.474;10.944;2024-03-23T09:40:42;3.25;;;3.05;;
34098;SDS011;20374;49.474;10.944;2024-03-23T09:43:08;3.30;;;3.10;;
34098;SDS011;20374;49.474;10.944;2024-03-23T09:45:38;2.88;;;2.67;;
34098;SDS011;20374;49.474;10.944;2024-03-23T09:48:06;3.10;;;2.90;;
34098;SDS011;20374;49.474;10.944;2024-03-23T09:50:36;3.70;;;3.45;;
34098;SDS011;20374;49.474;10.944;2024-03-23T09:53:08;2.72;;;2.53;;
34098;SDS011;20374;49.474;10.944;2024-03-23T09:55:43;3.60;;;3.40;;
34098;SDS011;20374;49.474;10.944;2024-03-23T09:58:13;3.33;;;3.13;;
34098;SDS011;20374;49.474;10.944;2024-03-23T10:00:43;3.00;;;2.80;;
34098;SDS011;20374;49.474;10.944;2024-03-23T10:03:09;3.50;;;3.30;;
34098;SDS011;20374;49.474;10.944;2024-03-23T10:05:36;2.65;;;2.45;;
34098;SDS011;20374;49.474;10.944;2024-03-23T10:10:41;2.55;;;2.35;;
34098;SDS011;20374;49.474;10.944;2024-03-23T10:13:07;2.90;;;2.70;;
34098;SDS011;20374;49.474;10.944;2024-03-23T10:15:34;3.53;;;3.33;;
34098;SDS011;20374;49.474;10.944;2024-03-23T10:18:19;2.60;;;2.40;;
34098;SDS011;20374;49.474;10.944;2024-03-23T20:12:06;3.80;;;3.50;;
34098;SDS011;20374;49.474;10.944;2024-03-23T20:14:33;2.55;;;1.98;;
34098;SDS011;20374;49.474;10.944;2024-03-23T20:16:59;2.77;;;2.57;;
34098;SDS011;20374;49.474;10.944;2024-03-23T20:19:25;1.98;;;1.83;;
34098;SDS011;20374;49.474;10.944;2024-03-23T20:21:51;2.10;;;1.90;;
34098;SDS011;20374;49.474;10.944;2024-03-23T20:24:17;2.50;;;2.30;;
34098;SDS011;20374;49.474;10.944;2024-03-23T20:26:43;3.90;;;3.60;;
34098;SDS011;20374;49.474;10.944;2024-03-23T20:29:08;2.58;;;2.38;;
34098;SDS011;20374;49.474;10.944;2024-03-23T20:31:34;2.65;;;2.45;;
34098;SDS011;20374;49.474;10.944;2024-03-23T20:34:01;2.77;;;2.57;;
34098;SDS011;20374;49.474;10.944;2024-03-23T20:36:27;2.90;;;2.70;;
34098;SDS011;20374;49.474;10.944;2024-03-23T20:38:55;3.03;;;2.83;;
34098;SDS011;20374;49.474;10.944;2024-03-23T20:41:21;3.00;;;2.80;;
34098;SDS011;20374;49.474;10.944;2024-03-23T20:43:49;2.90;;;2.70;;
34098;SDS011;20374;49.474;10.944;2024-03-23T20:46:15;2.38;;;2.17;;
34098;SDS011;20374;49.474;10.944;2024-03-23T20:48:41;3.35;;;3.15;;
34098;SDS011;20374;49.474;10.944;2024-03-23T20:51:13;3.30;;;3.10;;
34098;SDS011;20374;49.474;10.944;2024-03-23T20:53:39;5.03;;;3.20;;
34098;SDS011;20374;49.474;10.944;2024-03-23T20:56:05;2.70;;;2.50;;
34098;SDS011;20374;49.474;10.944;2024-03-23T20:58:33;2.67;;;2.47;;
34098;SDS011;20374;49.474;10.944;2024-03-23T21:01:03;2.70;;;2.50;;
34098;SDS011;20374;49.474;10.944;2024-03-23T21:03:31;4.32;;;4.05;;
34098;SDS011;20374;49.474;10.944;2024-03-23T21:06:00;2.83;;;2.63;;
34098;SDS011;20374;49.474;10.944;2024-03-23T21:08:31;4.23;;;2.37;;
34098;SDS011;20374;49.474;10.944;2024-03-23T21:11:01;2.65;;;2.45;;
34098;SDS011;20374;49.474;10.944;2024-03-23T21:13:30;3.08;;;2.88;;
34098;SDS011;20374;49.474;10.944;2024-03-23T21:15:58;1.88;;;1.75;;
34098;SDS011;20374;49.474;10.944;2024-03-23T21:18:25;2.53;;;2.33;;
34098;SDS011;20374;49.474;10.944;2024-03-23T21:20:55;2.40;;;2.20;;
34098;SDS011;20374;49.474;10.944;2024-03-23T21:23:29;2.97;;;2.78;;
34098;SDS011;20374;49.474;10.944;2024-03-23T21:25:57;2.78;;;2.58;;
34098;SDS011;20374;49.474;10.944;2024-03-23T21:28:24;2.50;;;2.30;;
34098;SDS011;20374;49.474;10.944;2024-03-23T21:30:50;2.28;;;2.08;;
34098;SDS011;20374;49.474;10.944;2024-03-23T21:33:16;2.03;;;1.83;;
34098;SDS011;20374;49.474;10.944;2024-03-23T21:35:42;2.65;;;2.45;;
34098;SDS011;20374;49.474;10.944;2024-03-23T21:38:08;2.75;;;2.55;;
34098;SDS011;20374;49.474;10.944;2024-03-23T21:40:34;3.10;;;2.90;;
34098;SDS011;20374;49.474;10.944;2024-03-23T21:43:00;2.75;;;2.55;;
34098;SDS011;20374;49.474;10.944;2024-03-23T21:45:26;2.85;;;2.65;;
34098;SDS011;20374;49.474;10.944;2024-03-23T21:47:52;2.70;;;2.50;;
34098;SDS011;20374;49.474;10.944;2024-03-23T21:50:18;2.03;;;1.83;;
34098;SDS011;20374;49.474;10.944;2024-03-23T21:52:43;2.55;;;2.35;;
34098;SDS011;20374;49.474;10.944;2024-03-23T21:55:10;2.80;;;2.60;;
34098;SDS011;20374;49.474;10.944;2024-03-23T21:57:35;2.95;;;2.65;;
34098;SDS011;20374;49.474;10.944;2024-03-23T22:00:05;3.28;;;3.08;;
34098;SDS011;20374;49.474;10.944;2024-03-23T22:02:38;3.03;;;2.83;;
34098;SDS011;20374;49.474;10.944;2024-03-23T22:05:03;2.83;;;2.63;;
34098;SDS011;20374;49.474;10.944;2024-03-23T22:07:30;2.65;;;2.45;;
34098;SDS011;20374;49.474;10.944;2024-03-23T22:09:57;2.67;;;2.47;;
34098;SDS011;20374;49.474;10.944;2024-03-23T22:12:23;2.83;;;2.63;;
34098;SDS011;20374;49.474;10.944;2024-03-23T22:14:51;2.63;;;2.43;;
34098;SDS011;20374;49.474;10.944;2024-03-23T22:17:17;2.83;;;2.63;;
34098;SDS011;20374;49.474;10.944;2024-03-23T22:19:45;2.80;;;2.60;;
34098;SDS011;20374;49.474;10.944;2024-03-23T22:22:11;2.95;;;2.75;;
34098;SDS011;20374;49.474;10.944;2024-03-23T22:24:37;2.87;;;2.67;;
34098;SDS011;20374;49.474;10.944;2024-03-23T22:27:03;2.80;;;2.60;;
34098;SDS011;20374;49.474;10.944;2024-03-23T22:29:29;4.07;;;3.78;;
34098;SDS011;20374;49.474;10.944;2024-03-23T22:31:55;2.53;;;2.33;;
34098;SDS011;20374;49.474;10.944;2024-03-23T22:34:21;2.92;;;2.72;;
34098;SDS011;20374;49.474;10.944;2024-03-23T22:36:47;3.38;;;3.17;;
34098;SDS011;20374;49.474;10.944;2024-03-23T22:39:12;2.63;;;2.43;;
34098;SDS011;20374;49.474;10.944;2024-03-23T22:41:39;3.72;;;3.42;;
34098;SDS011;20374;49.474;10.944;2024-03-23T22:44:05;2.90;;;2.70;;
34098;SDS011;20374;49.474;10.944;2024-03-23T22:46:31;4.10;;;3.27;;
34098;SDS011;20374;49.474;10.944;2024-03-23T22:48:57;2.80;;;2.60;;
34098;SDS011;20374;49.474;10.944;2024-03-23T22:51:22;2.90;;;2.70;;
34098;SDS011;20374;49.474;10.944;2024-03-23T22:53:48;3.10;;;2.90;;
34098;SDS011;20374;49.474;10.944;2024-03-23T22:56:14;2.67;;;2.47;;
34098;SDS011;20374;49.474;10.944;2024-03-23T22:58:42;2.72;;;2.53;;
34098;SDS011;20374;49.474;10.944;2024-03-23T23:01:08;2.70;;;2.50;;
34098;SDS011;20374;49.474;10.944;2024-03-23T23:03:33;3.20;;;3.00;;
34098;SDS011;20374;49.474;10.944;2024-03-23T23:06:01;3.65;;;2.85;;
34098;SDS011;20374;49.474;10.944;2024-03-23T23:08:30;2.50;;;2.30;;
34098;SDS011;20374;49.474;10.944;2024-03-23T23:10:57;2.53;;;2.33;;
34098;SDS011;20374;49.474;10.944;2024-03-23T23:13:24;2.97;;;2.78;;
34098;SDS011;20374;49.474;10.944;2024-03-23T23:15:50;2.97;;;2.78;;
34098;SDS011;20374;49.474;10.944;2024-03-23T23:18:19;2.60;;;2.40;;
34098;SDS011;20374;49.474;10.944;2024-03-23T23:20:45;2.67;;;2.47;;
34098;SDS011;20374;49.474;10.944;2024-03-23T23:23:12;2.00;;;1.80;;
34098;SDS011;20374;49.474;10.944;2024-03-23T23:25:38;2.55;;;2.35;;
34098;SDS011;20374;49.474;10.944;2024-03-23T23:28:04;2.90;;;2.70;;
34098;SDS011;20374;49.474;10.944;2024-03-23T23:30:30;2.60;;;2.40;;
34098;SDS011;20374;49.474;10.944;2024-03-23T23:32:56;2.88;;;2.67;;
34098;SDS011;20374;49.474;10.944;2024-03-23T23:35:23;2.47;;;2.28;;
34098;SDS011;20374;49.474;10.944;2024-03-23T23:37:51;3.08;;;2.88;;
34098;SDS011;20374;49.474;10.944;2024-03-23T23:40:20;3.38;;;3.17;;
34098;SDS011;20374;49.474;10.944;2024-03-23T23:42:46;2.13;;;1.93;;
34098;SDS011;20374;49.474;10.944;2024-03-23T23:45:12;2.35;;;2.15;;
34098;SDS011;20374;49.474;10.944;2024-03-23T23:47:38;2.97;;;2.78;;
34098;SDS011;20374;49.474;10.944;2024-03-23T23:50:04;2.80;;;2.60;;
34098;SDS011;20374;49.474;10.944;2024-03-23T23:52:30;2.75;;;2.55;;
34098;SDS011;20374;49.474;10.944;2024-03-23T23:54:56;2.92;;;2.72;;
34098;SDS011;20374;49.474;10.944;2024-03-23T23:57:22;3.30;;;3.10;;
34098;SDS011;20374;49.474;10.944;2024-03-23T23:59:49;3.40;;;3.17;;
